Aktualne dane pomiarowe

Uwaga, wersja testowa! Automatyczne pobieranie danych za pomocą narzędzi lub skryptów to umożliwiających jest zabronione.

Dane meteo z obszaru Polski uzyskane na podstawie depesz SYNOP pobieranych co godzinę z NWS. Najedź myszką na symbol przedstawiony w tabeli, aby uzyskać informacje co do jego znaczenia. Prosimy pamiętać, że to testowa wersja strony, która jeszcze nie jest ukończona. Stworzono również jest krótki FAQ dotyczący korzystania z tej podstrony Anomalie temperatury w chwili obecnej odniesione są do okresu referencyjnego 1951-2016. Okres ten będzie później zmieniony na 1981-2010. Kliknij ikonę aby pobrać plik CSV. Kliknij ikonę aby wygenerować mapę synoptyczną dla danego terminu.

Wybierz Datę:    

        

Kozienice (12488)

Dane terminowe dla wybranej stacji. Kliknij datę, aby otrzymać dane z tego terminu dla wszystkich stacji.

TemperaturaZachmurzenieWiatrCiśnienieOpadyPogoda
 Data t td wb tx tn tg rh  Nt Nl Cl Cm Ch ws wd g1 g2 wx mslp ppp ch 24h 12h t ww ww w1 w2  
2019-07-12 23:00:00 12.7 10.1 11.0--- 8440.0wx-wx1wx--11009.4 994.2 -0.4---------
2019-07-12 22:00:00 14.5 10.3 11.8--- 7650.0wx-wxwx0----1009.4 994.3 0.0---------
2019-07-12 21:00:00 14.8 9.8 11.7--- 7245.0wx-wxwx1wx--11009.5 994.4 0.5---------
2019-07-12 20:00:00 15.9 9.8 12.1--- 6740.0wxwxwxwxwx1wx--11009.6 994.6 0.7---------
2019-07-12 19:00:00 17.6 10.5 13.2--- 6350.0wxwxwxwx1wx--11009.2 994.3 0.5---------
2019-07-12 18:00:00 22.3 9.1 14.6 26.1 17.1- 4340.0wxwxwxwx1wx--11008.6 993.9 -0.3- 0.012------
2019-07-12 17:00:00 23.7 8.5 15.0--- 3845.0wxwxwx0---01008.5 993.9 -0.4---------
2019-07-12 16:00:00 23.8 7.4 14.6--- 3545.0wxwxwxwx2wx--21008.4 993.8 -0.6---------
2019-07-12 15:00:00 23.4 7.1 14.3--- 3545.0wxwxwxwx2wx--21008.8 994.2 -0.7---------
2019-07-12 14:00:00 24.4 4.7 13.8--- 2845.0wxwxwxwx2wx--21008.9 994.3 -1.0---------
2019-07-12 13:00:00 24.9 6.1 14.5--- 3035.0wxwxwxwx2wx--21009.0 994.4 -1.2---------
2019-07-12 12:00:00 23.7 6.9 14.3--- 3445.0wxwxwxwx2wx--21009.5 994.9 -1.0- 0.06------
2019-07-12 11:00:00 23.1 6.4 13.9--- 3445.0wxwxwxwx2wx--21010.0 995.3 -0.8---------
2019-07-12 10:00:00 23.3 6.5 14.0--- 3435.0wxwxwxwx2wx--21010.2 995.6 -0.7---------
2019-07-12 09:00:00 22.1 6.7 13.6--- 3740.0wxwxwxwx3wx---1010.6 995.9 -0.4---------
2019-07-12 08:00:00 21.2 8.8 14.0--- 4535.0wxwxwxwxwx3wx--31010.9 996.1 -0.3---------
2019-07-12 07:00:00 19.4 8.7 13.2--- 5040.0wx-wxwx2wx--21011.2 996.3 0.0---------
2019-07-12 06:00:00 17.1 10.0 12.8 18.6 9.0 6 6340.0wxwxwx1wx--11011.3 996.3 -0.1- 0.012----- 3.4
2019-07-12 05:00:00 14.3 9.3 11.2--- 7240.0wxwxwxwx1wx---1011.5 996.4 0.1---------
2019-07-12 04:00:00 11.1 9.2 9.8--- 8835.0wxwxwx1wx--11011.6 996.3 0.0---------
2019-07-12 03:00:00 9.2 7.6 8.1--- 9025.0wxwxwx1wx--11011.8 996.4 0.0---------
2019-07-12 02:00:00 10.3 7.7 8.6--- 8445.0wxwxwx1wx--11011.6 996.3 -0.4---------
2019-07-12 01:00:00 10.6 7.5 8.6--- 8145.0wx-1wx--11011.6 996.3 -0.3---------
2019-07-12 00:00:00 13.0 8.1 10.0--- 7250.0wx-wx2wx--21011.6 996.4 -0.1- 0.06------
2019-07-11 23:00:00 13.9 8.5 10.6--- 7050.0wx-wx1wx--11011.8 996.7 0.4---------
2019-07-11 22:00:00 12.5 8.4 9.9--- 7650.0wx-wx2wx--21011.8 996.6 0.4---------
2019-07-11 21:00:00 13.9 8.5 10.6--- 7050.0wxwxwx2wx--21011.6 996.5 0.5---------
2019-07-11 20:00:00 14.9 9.3 11.4--- 6950.0wxwxwxwx2wx--21011.4 996.3 0.3---------
2019-07-11 19:00:00 17.0 9.2 12.3--- 6050.0wxwxwxwx1wx--11011.2 996.2 0.2---------
2019-07-11 18:00:00 18.6 8.3 12.6 20.1 12.3- 5150.0wxwxwxwx1wx--11010.9 996.0 -0.1--12------
2019-07-11 17:00:00 19.2 7.9 12.7--- 4850.0wxwxwxwx3wx--31010.9 996.0 0.0---------
2019-07-11 16:00:00 19.6 9.2 13.5--- 5145.0wxwxwxwx2wx--21010.8 996.0 -0.2---------
2019-07-11 15:00:00 19.4 8.7 13.2--- 5045.0wxwxwxwx4wx--41011.0 996.1 0.0---------
2019-07-11 14:00:00 19.0 9.5 13.4--- 5440.0wxwxwxwx3wx--31010.9 996.0 -0.2---------
2019-07-11 13:00:00 18.3 8.8 12.7--- 5445.0wxwxwxwx4wx--41011.1 996.2 0.1---------
2019-07-11 12:00:00 17.7 10.1 13.1--- 6145.0wxwxwx3wx--31011.0 996.1 -0.4--6wx-w1--
2019-07-11 11:00:00 16.5 10.1 12.5--- 6650.0wxwxwx3wx--31011.2 996.2 0.0---wx---
2019-07-11 10:00:00 17.7 10.6 13.3--- 6335.0wxwxwxwx2wx--21011.0 996.1 0.0---------
2019-07-11 09:00:00 15.6 10.4 12.3--- 7135.0wxwxwxwx2wx--21011.6 996.5 0.4---wx-w1--
2019-07-11 08:00:00 15.3 10.7 12.4--- 7440.0wxwxwxwx3wx--31011.3 996.2 0.5---------
2019-07-11 07:00:00 13.8 11.1 12.0--- 8435.0wxwxwxwxwx3wx---1011.2 996.1 0.4---wx---
2019-07-11 06:00:00 12.3 11.4 11.6 16.0 11.4 11 9416.0wxwxwxwx2wx--21011.3 996.1 0.4 0.7 0.612wx-- 2.2
2019-07-11 05:00:00 11.6 10.7 10.9--- 9417.0wxwxwx1wx--11011.0 995.7 -0.1---wx-w1w2--
2019-07-11 04:00:00 11.5 10.1 10.5--- 9116.0wxwxwx1wx--11011.0 995.7 -0.2---wx-w1--
2019-07-11 03:00:00 12.0 9.9 10.6--- 8735.0wxwxwx2wx--21010.9 995.7 -0.3---wx---
2019-07-11 02:00:00 12.2 10.1 10.8--- 8740.0wxwxwx3wx--31011.0 995.8 0.0---------
2019-07-11 01:00:00 11.5 9.7 10.3--- 8950.0wxwxwxwx2wx--21011.2 995.9 0.1---------
2019-07-11 00:00:00 12.1 9.8 10.6--- 8650.0wx-wx2wx--21011.2 996.0 -0.1--6------
1.1 ms

 

Print Friendly, PDF & Email